Time;durP1;ratioP1;P1;durP2;ratioP2;P2;SDS_P1;SDS_P2;PMS_P1;PMS_P2;Temp;Humidity;BMP_temperature;BMP_pressure;BME280_temperature;BME280_humidity;BME280_pressure;Samples;Min_cycle;Max_cycle;Signal;HPM_P1;HPM_P2
2022/07/07 02:47:59;;;;;;;2.80;0.80;;;17.50;77.10;;;;;;5112268;23;88243;-70
2022/07/07 02:50:25;;;;;;;2.05;0.80;;;17.50;77.40;;;;;;4917322;28;87359;-70
2022/07/07 02:52:52;;;;;;;3.70;0.75;;;17.50;76.70;;;;;;4915734;28;86950;-69
2022/07/07 02:55:17;;;;;;;5.03;0.60;;;17.40;76.40;;;;;;4913182;28;86924;-69
2022/07/07 02:57:43;;;;;;;2.72;0.70;;;17.40;76.70;;;;;;4913851;28;86210;-69
2022/07/07 03:00:09;;;;;;;3.47;0.68;;;17.40;76.70;;;;;;4915924;28;88039;-70
2022/07/07 03:02:35;;;;;;;3.83;0.70;;;17.30;77.20;;;;;;4916539;28;87103;-69
2022/07/07 03:05:01;;;;;;;2.63;0.93;;;17.30;77.90;;;;;;4915223;28;88132;-70
2022/07/07 03:07:26;;;;;;;2.95;0.85;;;17.30;78.20;;;;;;4917244;28;86946;-70
2022/07/07 03:09:52;;;;;;;3.85;0.90;;;17.30;78.60;;;;;;4917309;28;88224;-70
2022/07/07 03:12:17;;;;;;;2.30;0.80;;;17.30;78.90;;;;;;4916673;28;88013;-70
2022/07/07 03:14:43;;;;;;;4.13;0.65;;;17.30;79.50;;;;;;4916912;28;87068;-69
2022/07/07 03:17:09;;;;;;;3.72;1.45;;;17.30;79.60;;;;;;4915849;28;87409;-70
2022/07/07 03:19:34;;;;;;;4.28;0.90;;;17.20;79.30;;;;;;4916455;28;88339;-69
2022/07/07 03:22:01;;;;;;;3.75;0.70;;;17.30;79.70;;;;;;4917554;28;86920;-70
2022/07/07 03:24:29;;;;;;;2.45;0.70;;;17.30;79.20;;;;;;4910866;28;86739;-69
2022/07/07 03:26:55;;;;;;;6.05;1.13;;;17.20;79.30;;;;;;4901711;28;87091;-69
2022/07/07 03:29:21;;;;;;;3.05;1.00;;;17.20;79.00;;;;;;4909477;28;88291;-69
2022/07/07 03:31:47;;;;;;;5.32;0.73;;;17.30;79.20;;;;;;4914615;28;87892;-69
2022/07/07 03:34:13;;;;;;;3.22;0.98;;;17.20;79.70;;;;;;4917976;28;87006;-69
2022/07/07 03:36:38;;;;;;;3.05;0.70;;;17.10;80.10;;;;;;4918952;28;86545;-69
2022/07/07 03:39:05;;;;;;;3.75;1.02;;;17.10;80.50;;;;;;4913065;28;87455;-69
2022/07/07 03:41:30;;;;;;;2.30;0.85;;;17.10;80.10;;;;;;4915586;28;87097;-69
2022/07/07 03:43:56;;;;;;;6.18;0.90;;;17.10;80.10;;;;;;4916645;28;87145;-69
2022/07/07 03:46:22;;;;;;;3.22;0.80;;;17.00;80.00;;;;;;4921119;28;86175;-69
2022/07/07 03:48:48;;;;;;;3.38;1.02;;;17.00;80.20;;;;;;4931968;28;87118;-69
2022/07/07 03:51:14;;;;;;;2.38;0.70;;;17.00;80.20;;;;;;4921450;28;87909;-69
2022/07/07 03:53:40;;;;;;;4.18;0.70;;;17.00;80.10;;;;;;4916522;28;88379;-69
2022/07/07 03:56:06;;;;;;;3.47;0.70;;;17.10;79.70;;;;;;4917700;28;87540;-69
2022/07/07 03:58:32;;;;;;;2.70;0.57;;;17.00;79.70;;;;;;4919005;28;87365;-69
2022/07/07 04:01:02;;;;;;;1.42;0.57;;;17.00;80.00;;;;;;4920290;28;87022;-69
2022/07/07 04:03:27;;;;;;;4.53;0.75;;;17.00;79.30;;;;;;4910178;28;87228;-69
2022/07/07 04:05:53;;;;;;;3.83;1.10;;;17.00;79.60;;;;;;4918489;28;86591;-69
2022/07/07 04:08:20;;;;;;;2.17;0.65;;;17.10;79.50;;;;;;4918056;28;87631;-69
2022/07/07 04:10:46;;;;;;;4.10;1.00;;;17.10;79.50;;;;;;4917173;28;87477;-69
2022/07/07 04:13:13;;;;;;;7.05;0.70;;;17.20;79.70;;;;;;4920559;28;86893;-69
2022/07/07 04:15:38;;;;;;;6.00;0.70;;;17.30;79.50;;;;;;4913954;28;87107;-69
2022/07/07 04:18:04;;;;;;;2.78;0.60;;;17.40;79.00;;;;;;4918010;28;88879;-69
2022/07/07 04:20:30;;;;;;;5.38;0.88;;;17.50;78.80;;;;;;4917898;28;87599;-69
2022/07/07 04:22:56;;;;;;;2.67;0.70;;;17.70;77.90;;;;;;4916829;28;87261;-70
2022/07/07 04:25:22;;;;;;;1.83;0.50;;;17.80;77.80;;;;;;4919609;28;87442;-71
2022/07/07 04:27:48;;;;;;;3.28;0.60;;;18.20;77.80;;;;;;4918298;28;87523;-71
2022/07/07 04:30:14;;;;;;;2.83;0.82;;;18.80;75.50;;;;;;4927184;28;87351;-70
2022/07/07 04:32:39;;;;;;;2.55;0.85;;;19.40;74.50;;;;;;4920784;28;87069;-70
2022/07/07 04:35:06;;;;;;;1.77;0.73;;;20.00;72.30;;;;;;4920583;28;86349;-70
2022/07/07 04:37:32;;;;;;;2.58;0.80;;;20.40;69.50;;;;;;4916442;28;87019;-70
2022/07/07 04:39:57;;;;;;;2.85;0.52;;;20.70;69.90;;;;;;4913338;28;88207;-70
2022/07/07 04:42:23;;;;;;;4.43;0.98;;;21.00;67.60;;;;;;4918780;28;87929;-69
2022/07/07 04:44:49;;;;;;;2.60;0.75;;;21.50;65.70;;;;;;4914083;28;86852;-70
2022/07/07 04:47:14;;;;;;;4.95;0.70;;;21.90;65.50;;;;;;4913880;28;87025;-70
2022/07/07 04:49:40;;;;;;;2.22;1.05;;;22.30;63.00;;;;;;4918654;28;86893;-70
2022/07/07 04:52:06;;;;;;;3.58;0.68;;;22.80;62.80;;;;;;4917079;28;87407;-69
2022/07/07 04:54:32;;;;;;;3.50;0.63;;;23.40;61.10;;;;;;4915832;28;87114;-69
2022/07/07 04:56:57;;;;;;;4.57;0.65;;;24.00;58.70;;;;;;4914310;28;88412;-70
2022/07/07 04:59:23;;;;;;;2.90;0.70;;;24.10;58.90;;;;;;4916401;28;86309;-71
2022/07/07 05:01:49;;;;;;;3.10;0.75;;;24.70;58.00;;;;;;4915091;28;87797;-71
2022/07/07 05:04:14;;;;;;;4.95;0.82;;;25.40;55.60;;;;;;4914129;28;87033;-71
2022/07/07 05:06:40;;;;;;;2.35;0.82;;;25.90;55.70;;;;;;4911621;28;89192;-75
2022/07/07 05:09:06;;;;;;;3.47;0.90;;;26.30;53.50;;;;;;4910219;28;88077;-73
2022/07/07 05:11:32;;;;;;;2.60;0.80;;;26.60;52.90;;;;;;4916483;28;87196;-78
2022/07/07 05:13:57;;;;;;;2.88;1.10;;;27.40;52.20;;;;;;4918112;28;87206;-77
2022/07/07 05:16:23;;;;;;;4.07;0.90;;;27.50;51.10;;;;;;4914582;28;87011;-76
2022/07/07 05:18:49;;;;;;;3.45;1.02;;;27.90;49.50;;;;;;4916574;28;88414;-78
2022/07/07 05:21:15;;;;;;;6.57;1.38;;;27.10;50.00;;;;;;4912751;28;87156;-77
2022/07/07 05:23:40;;;;;;;3.40;1.23;;;26.20;50.50;;;;;;4918936;28;86779;-77
2022/07/07 05:26:06;;;;;;;2.70;0.80;;;25.80;51.70;;;;;;4919268;28;88213;-78
2022/07/07 05:28:33;;;;;;;3.33;1.17;;;26.00;51.10;;;;;;4920867;28;86998;-78
2022/07/07 05:30:59;;;;;;;2.70;0.75;;;26.30;50.70;;;;;;4914953;28;88117;-78
2022/07/07 05:33:24;;;;;;;3.80;0.73;;;27.10;50.10;;;;;;4915226;28;87285;-79
2022/07/07 05:35:50;;;;;;;3.92;0.90;;;27.00;50.30;;;;;;4919610;28;87272;-78
2022/07/07 05:38:16;;;;;;;3.33;0.80;;;26.30;49.50;;;;;;4910756;28;88202;-78
2022/07/07 05:40:41;;;;;;;2.05;0.75;;;25.70;51.10;;;;;;4914068;28;87042;-77
2022/07/07 05:43:08;;;;;;;1.83;0.88;;;24.40;53.80;;;;;;4913456;28;86783;-79
2022/07/07 05:45:34;;;;;;;4.82;1.20;;;24.10;55.00;;;;;;4917965;28;87193;-77
2022/07/07 05:47:59;;;;;;;4.03;1.23;;;24.30;54.60;;;;;;4912433;28;86855;-78
2022/07/07 05:50:25;;;;;;;3.30;0.70;;;24.40;54.30;;;;;;4910647;28;88792;-80
2022/07/07 05:52:51;;;;;;;3.05;0.70;;;24.80;53.90;;;;;;4914023;28;87488;-79
2022/07/07 05:55:17;;;;;;;4.50;1.00;;;25.10;54.10;;;;;;4913049;28;88557;-79
2022/07/07 05:57:43;;;;;;;1.73;0.63;;;25.70;53.30;;;;;;4913305;28;87219;-80
2022/07/07 06:00:09;;;;;;;3.05;0.80;;;26.60;52.30;;;;;;4917503;28;87092;-82
2022/07/07 06:02:35;;;;;;;3.90;0.98;;;27.70;50.50;;;;;;4917077;28;86960;-72
2022/07/07 06:05:02;;;;;;;5.00;1.38;;;28.50;48.20;;;;;;4916005;28;88930;-72
2022/07/07 06:07:28;;;;;;;2.85;0.50;;;28.70;47.40;;;;;;4916027;28;87895;-72
2022/07/07 06:09:54;;;;;;;3.00;0.85;;;28.40;46.90;;;;;;4913353;28;87104;-72
2022/07/07 06:12:21;;;;;;;2.83;0.90;;;27.50;47.90;;;;;;4910023;28;86819;-72
2022/07/07 06:14:47;;;;;;;5.40;1.00;;;26.70;50.10;;;;;;4914766;28;87315;-72
2022/07/07 06:17:13;;;;;;;2.35;0.93;;;25.20;52.00;;;;;;4912992;28;87093;-72
2022/07/07 06:19:38;;;;;;;2.65;0.52;;;24.70;53.70;;;;;;4908965;28;88030;-72
2022/07/07 06:22:04;;;;;;;3.30;0.85;;;25.00;53.20;;;;;;4906049;28;87077;-72
2022/07/07 06:24:30;;;;;;;3.13;0.80;;;25.20;53.40;;;;;;4909671;28;87473;-72
2022/07/07 06:26:56;;;;;;;3.70;0.90;;;25.30;54.00;;;;;;4910208;28;87984;-73
2022/07/07 06:29:21;;;;;;;2.55;0.73;;;25.50;53.50;;;;;;4912205;28;87044;-72
2022/07/07 06:31:47;;;;;;;2.65;0.80;;;25.90;54.40;;;;;;4916990;28;87071;-72
2022/07/07 06:34:13;;;;;;;2.17;0.93;;;28.20;50.80;;;;;;4916337;28;88217;-73
2022/07/07 06:36:38;;;;;;;4.30;0.77;;;30.70;45.10;;;;;;4916835;28;86081;-72
2022/07/07 06:39:04;;;;;;;3.75;1.10;;;32.40;41.30;;;;;;4914501;28;87062;-72
2022/07/07 06:41:36;;;;;;;5.97;1.02;;;32.70;41.00;;;;;;4916491;28;87001;-73
2022/07/07 06:44:03;;;;;;;5.82;1.10;;;33.10;39.90;;;;;;4916457;28;88238;-73
2022/07/07 06:46:29;;;;;;;4.35;1.63;;;34.00;39.40;;;;;;4912748;28;87938;-72
2022/07/07 06:48:55;;;;;;;2.70;0.80;;;35.20;37.00;;;;;;4911939;28;86822;-73
2022/07/07 06:51:21;;;;;;;2.35;1.02;;;35.10;37.50;;;;;;4912520;28;86630;-72
2022/07/07 06:53:47;;;;;;;7.20;1.20;;;35.00;36.80;;;;;;4915256;28;86971;-73
2022/07/07 06:56:13;;;;;;;5.07;1.10;;;36.30;33.90;;;;;;4914732;28;86912;-73
2022/07/07 06:58:39;;;;;;;3.53;1.00;;;36.00;35.30;;;;;;4908779;28;87393;-73
2022/07/07 07:01:05;;;;;;;3.15;1.17;;;36.60;36.20;;;;;;4916077;28;86311;-73
2022/07/07 07:03:30;;;;;;;3.15;1.17;;;36.80;34.10;;;;;;4909854;28;87141;-72
2022/07/07 07:05:56;;;;;;;3.63;1.17;;;35.00;34.60;;;;;;4916586;28;87398;-72
2022/07/07 07:08:22;;;;;;;3.83;1.27;;;33.50;36.80;;;;;;4914955;28;87692;-72
2022/07/07 07:10:47;;;;;;;5.50;1.25;;;32.50;38.90;;;;;;4914773;28;87378;-72
2022/07/07 07:13:13;;;;;;;2.22;1.10;;;31.80;39.10;;;;;;4911987;28;87251;-72
2022/07/07 07:15:39;;;;;;;5.20;1.45;;;31.20;39.90;;;;;;4916448;28;87315;-72
2022/07/07 07:18:06;;;;;;;2.17;1.15;;;30.70;39.80;;;;;;4912778;28;87187;-72
2022/07/07 07:20:33;;;;;;;5.20;0.93;;;31.40;39.70;;;;;;4916723;28;87047;-72
2022/07/07 07:22:59;;;;;;;5.50;1.17;;;31.90;39.20;;;;;;4915031;28;88543;-72
2022/07/07 07:25:24;;;;;;;3.00;0.93;;;31.50;39.10;;;;;;4914634;28;86312;-73
2022/07/07 07:27:50;;;;;;;2.67;1.17;;;32.00;40.00;;;;;;4917101;28;87171;-72
2022/07/07 07:30:16;;;;;;;3.17;1.02;;;31.80;39.90;;;;;;4910941;28;86974;-72
2022/07/07 07:32:45;;;;;;;2.95;0.93;;;32.50;39.20;;;;;;4911959;28;88843;-72
2022/07/07 07:35:11;;;;;;;2.45;1.13;;;33.50;38.50;;;;;;4915778;28;87830;-72
2022/07/07 07:37:39;;;;;;;3.95;1.05;;;33.30;37.90;;;;;;4916572;28;87055;-72
2022/07/07 07:40:07;;;;;;;1.83;0.88;;;32.80;37.40;;;;;;4907797;28;87067;-72
2022/07/07 07:42:33;;;;;;;2.60;1.08;;;31.10;39.60;;;;;;4907188;28;88969;-72
2022/07/07 07:45:11;;;;;;;3.83;0.75;;;29.60;41.20;;;;;;4907816;28;87742;-72
2022/07/07 07:47:42;;;;;;;3.58;0.75;;;28.00;43.00;;;;;;4915101;28;87153;-72
2022/07/07 07:50:12;;;;;;;2.13;0.93;;;27.10;45.20;;;;;;4916913;28;86203;-72
2022/07/07 07:52:39;;;;;;;3.30;0.63;;;27.20;43.70;;;;;;4909964;28;88062;-72
2022/07/07 07:55:07;;;;;;;3.25;0.80;;;27.50;42.80;;;;;;4916017;28;87362;-73
2022/07/07 07:57:33;;;;;;;2.70;1.05;;;26.90;44.40;;;;;;4906511;28;88246;-72
2022/07/07 07:59:58;;;;;;;2.88;0.82;;;27.00;46.00;;;;;;4916575;28;87058;-72
2022/07/07 08:02:24;;;;;;;5.50;0.95;;;27.10;45.30;;;;;;4915876;28;87393;-72
2022/07/07 08:04:51;;;;;;;2.70;0.80;;;27.60;44.70;;;;;;4916432;28;87170;-72
2022/07/07 08:07:17;;;;;;;3.50;0.65;;;28.20;43.90;;;;;;4907253;28;87349;-72
2022/07/07 08:09:43;;;;;;;1.80;0.90;;;28.30;43.40;;;;;;4916221;28;87309;-72
2022/07/07 08:12:09;;;;;;;3.55;0.82;;;28.00;46.10;;;;;;4905694;28;87550;-72
2022/07/07 08:14:35;;;;;;;3.00;0.57;;;28.40;45.60;;;;;;4910304;28;86565;-72
2022/07/07 08:17:01;;;;;;;2.17;0.70;;;28.50;44.40;;;;;;4915716;28;86967;-73
2022/07/07 08:19:27;;;;;;;1.58;0.50;;;29.60;43.70;;;;;;4916151;28;86812;-72
2022/07/07 08:21:53;;;;;;;4.38;1.05;;;30.60;42.50;;;;;;4908592;28;88321;-72
2022/07/07 08:24:19;;;;;;;2.45;0.80;;;31.00;41.20;;;;;;4914816;28;88089;-72
2022/07/07 08:26:44;;;;;;;3.25;0.82;;;31.80;40.50;;;;;;4919253;28;87436;-72
2022/07/07 08:29:10;;;;;;;4.30;1.10;;;31.90;41.20;;;;;;4918884;28;86871;-72
2022/07/07 08:31:36;;;;;;;6.93;1.50;;;31.70;40.60;;;;;;4918907;28;86944;-72
2022/07/07 08:34:02;;;;;;;4.03;0.88;;;31.40;38.60;;;;;;4919106;28;87663;-72
2022/07/07 08:36:30;;;;;;;2.28;0.88;;;30.80;39.60;;;;;;4919599;28;86791;-72
2022/07/07 08:38:56;;;;;;;2.30;1.10;;;29.50;42.20;;;;;;4918650;28;86356;-72
2022/07/07 08:41:22;;;;;;;2.45;1.10;;;28.60;43.60;;;;;;4918561;28;86957;-72
2022/07/07 08:43:49;;;;;;;3.13;1.00;;;27.50;46.10;;;;;;4913392;28;87619;-72
2022/07/07 08:46:15;;;;;;;4.22;0.90;;;27.40;44.60;;;;;;4918188;28;88113;-72
2022/07/07 08:48:41;;;;;;;2.67;0.85;;;27.60;44.20;;;;;;4919733;28;86977;-72
2022/07/07 08:51:07;;;;;;;2.75;1.20;;;27.40;46.20;;;;;;4918417;28;87199;-72
2022/07/07 08:53:35;;;;;;;3.42;1.17;;;26.90;47.70;;;;;;4919162;28;87492;-72
2022/07/07 08:56:06;;;;;;;4.13;1.00;;;26.60;49.50;;;;;;4918270;28;86662;-72
2022/07/07 08:58:35;;;;;;;2.80;1.08;;;26.40;48.00;;;;;;4918906;28;87461;-72
2022/07/07 09:01:04;;;;;;;4.05;1.50;;;26.70;48.80;;;;;;4918338;28;87311;-72
2022/07/07 09:03:30;;;;;;;3.13;1.20;;;26.70;50.10;;;;;;4918666;28;87960;-72
2022/07/07 09:05:57;;;;;;;3.97;1.15;;;25.70;50.60;;;;;;4917719;28;87034;-72
2022/07/07 09:08:24;;;;;;;4.93;1.20;;;25.40;51.10;;;;;;4914268;28;87516;-72
2022/07/07 09:10:51;;;;;;;4.28;1.00;;;25.60;51.60;;;;;;4914696;28;88668;-72
2022/07/07 09:13:21;;;;;;;3.08;1.00;;;25.40;51.20;;;;;;4918619;28;87963;-72
2022/07/07 09:15:47;;;;;;;3.90;0.95;;;25.20;52.90;;;;;;4918898;28;87002;-72
2022/07/07 09:18:31;;;;;;;2.92;1.15;;;25.30;52.40;;;;;;4917775;28;86697;-72
2022/07/07 09:20:57;;;;;;;4.35;1.20;;;25.60;50.40;;;;;;4917673;28;87032;-72
2022/07/07 09:23:23;;;;;;;4.28;1.25;;;25.70;49.60;;;;;;4913584;28;87917;-72
2022/07/07 09:25:49;;;;;;;5.93;1.48;;;25.40;51.70;;;;;;4918778;28;87078;-72
2022/07/07 09:28:15;;;;;;;3.38;1.10;;;25.10;50.80;;;;;;4918488;28;85906;-72
2022/07/07 09:30:43;;;;;;;3.83;1.33;;;25.40;50.70;;;;;;4918738;28;86823;-72
2022/07/07 09:33:26;;;;;;;5.75;1.33;;;25.70;51.70;;;;;;4917631;28;87311;-72
2022/07/07 09:38:39;;;;;;;7.82;1.17;;;25.00;53.30;;;;;;4918981;28;86816;-72
2022/07/07 09:41:08;;;;;;;7.40;1.23;;;25.10;51.60;;;;;;4918184;28;88449;-72
2022/07/07 09:43:36;;;;;;;3.78;1.23;;;25.30;52.50;;;;;;4918520;28;87029;-72
2022/07/07 09:46:06;;;;;;;3.10;1.13;;;25.40;51.90;;;;;;4914956;28;87171;-72
2022/07/07 09:48:33;;;;;;;5.72;1.10;;;25.20;51.30;;;;;;4911883;28;87389;-72
2022/07/07 09:51:15;;;;;;;6.68;1.20;;;25.50;50.80;;;;;;4908961;28;88057;-72
2022/07/07 09:54:12;;;;;;;3.60;1.13;;;25.40;50.20;;;;;;4909644;28;87992;-72
2022/07/07 09:56:39;;;;;;;4.10;1.10;;;25.10;51.90;;;;;;4911890;28;87143;-72
2022/07/07 09:59:09;;;;;;;2.72;1.23;;;24.50;54.30;;;;;;4916976;28;87054;-72
2022/07/07 10:01:38;;;;;;;4.72;1.38;;;24.60;52.10;;;;;;4912679;28;87987;-72
2022/07/07 10:04:07;;;;;;;3.97;0.95;;;24.50;52.70;;;;;;4917735;28;88098;-72
2022/07/07 10:06:35;;;;;;;5.78;1.15;;;24.50;50.90;;;;;;4913338;28;87079;-72
2022/07/07 10:09:06;;;;;;;3.25;1.17;;;24.00;54.30;;;;;;4916506;28;87191;-72
2022/07/07 10:11:35;;;;;;;3.83;1.30;;;23.90;55.70;;;;;;4911141;28;87781;-72
2022/07/07 10:14:07;;;;;;;3.80;1.23;;;24.00;57.40;;;;;;4913061;28;87046;-72
2022/07/07 10:16:34;;;;;;;4.82;1.08;;;24.00;56.10;;;;;;4910591;28;87250;-72
2022/07/07 10:19:00;;;;;;;2.60;1.15;;;24.10;54.00;;;;;;4919371;28;86364;-72
2022/07/07 10:21:26;;;;;;;4.82;1.30;;;24.40;54.70;;;;;;4917661;28;87388;-72
2022/07/07 10:23:53;;;;;;;3.80;1.20;;;25.00;54.90;;;;;;4913866;28;87179;-72
2022/07/07 10:26:38;;;;;;;5.30;1.13;;;25.10;50.30;;;;;;4916901;28;88100;-72
2022/07/07 10:29:04;;;;;;;4.88;1.27;;;24.70;53.00;;;;;;4918328;28;86964;-72
2022/07/07 10:31:30;;;;;;;2.63;1.27;;;25.40;53.00;;;;;;4917655;28;87361;-72
2022/07/07 10:34:08;;;;;;;3.15;1.70;;;26.40;51.40;;;;;;4918413;28;86903;-72
2022/07/07 10:36:46;;;;;;;5.47;1.50;;;27.00;49.60;;;;;;4918086;28;87847;-72
2022/07/07 10:39:13;;;;;;;3.25;1.50;;;26.90;48.50;;;;;;4915884;28;87004;-72
2022/07/07 10:41:40;;;;;;;3.72;1.05;;;27.00;48.50;;;;;;4918577;28;87067;-72
2022/07/07 10:44:09;;;;;;;3.42;1.35;;;27.00;47.70;;;;;;4917403;28;86172;-72
2022/07/07 10:46:37;;;;;;;9.10;2.25;;;26.70;49.30;;;;;;4909299;28;87726;-72
2022/07/07 10:49:11;;;;;;;7.85;1.80;;;26.00;51.00;;;;;;4918295;28;87004;-72
2022/07/07 10:51:54;;;;;;;6.07;2.13;;;25.80;50.20;;;;;;4917068;28;88619;-72
2022/07/07 10:54:37;;;;;;;10.15;2.25;;;24.70;53.20;;;;;;4917088;28;87275;-72
2022/07/07 10:57:05;;;;;;;9.90;2.28;;;24.80;54.60;;;;;;4917188;28;87073;-72
2022/07/07 10:59:58;;;;;;;4.88;1.35;;;24.40;54.50;;;;;;4910575;28;87069;-72
2022/07/07 11:02:47;;;;;;;4.43;0.80;;;24.60;56.00;;;;;;4908304;28;87793;-72
2022/07/07 11:05:15;;;;;;;6.68;0.93;;;25.70;54.30;;;;;;4915866;28;87329;-72
2022/07/07 11:07:56;;;;;;;3.70;1.13;;;26.50;53.80;;;;;;4913996;28;87377;-72
2022/07/07 11:10:44;;;;;;;2.45;0.80;;;26.70;52.50;;;;;;4913771;28;86031;-72
2022/07/07 11:13:22;;;;;;;3.40;1.13;;;25.70;53.50;;;;;;4913237;28;86696;-72
2022/07/07 11:15:50;;;;;;;6.95;0.98;;;26.00;51.30;;;;;;4910226;28;86904;-72
2022/07/07 11:18:20;;;;;;;4.22;1.20;;;26.60;49.90;;;;;;4913085;28;87984;-72
2022/07/07 11:20:54;;;;;;;2.90;1.30;;;27.00;49.90;;;;;;4918501;28;88253;-73
2022/07/07 11:23:21;;;;;;;2.70;1.05;;;27.00;48.60;;;;;;4917872;28;87167;-72
2022/07/07 11:25:47;;;;;;;8.07;2.08;;;27.10;49.60;;;;;;4918674;28;87143;-71
2022/07/07 11:28:13;;;;;;;3.72;1.05;;;27.60;50.90;;;;;;4915063;28;87079;-72
2022/07/07 11:30:40;;;;;;;5.03;1.95;;;28.20;48.50;;;;;;4909856;28;86901;-72
2022/07/07 11:33:07;;;;;;;3.90;1.45;;;26.60;48.80;;;;;;4914155;28;86963;-72
2022/07/07 11:35:40;;;;;;;4.53;1.30;;;24.50;54.70;;;;;;4916234;28;86243;-72
2022/07/07 11:38:11;;;;;;;4.13;1.38;;;25.10;55.40;;;;;;4916772;28;86900;-72
2022/07/07 11:40:38;;;;;;;4.70;1.35;;;26.10;52.40;;;;;;4916817;28;86979;-72
2022/07/07 11:43:05;;;;;;;6.15;1.10;;;26.10;52.30;;;;;;4915801;28;88112;-71
2022/07/07 11:45:32;;;;;;;4.80;1.10;;;26.10;53.50;;;;;;4916157;28;88294;-71
2022/07/07 11:48:07;;;;;;;5.85;1.33;;;26.00;50.80;;;;;;4910655;28;87491;-72
2022/07/07 11:50:35;;;;;;;3.17;1.27;;;26.00;52.10;;;;;;4916587;28;86976;-72
2022/07/07 11:53:02;;;;;;;5.43;1.23;;;25.90;52.70;;;;;;4903320;28;88127;-71
2022/07/07 11:55:29;;;;;;;2.92;1.00;;;26.10;52.40;;;;;;4918226;28;86910;-71
2022/07/07 11:58:00;;;;;;;3.55;0.90;;;26.70;49.60;;;;;;4919876;28;87013;-72
2022/07/07 12:00:28;;;;;;;1.70;0.60;;;26.80;48.50;;;;;;4920539;28;86248;-71
2022/07/07 12:02:56;;;;;;;1.95;0.63;;;26.70;48.20;;;;;;4918738;28;87228;-71
2022/07/07 12:05:28;;;;;;;3.95;1.15;;;26.40;49.90;;;;;;4918850;28;87843;-72
2022/07/07 12:07:55;;;;;;;5.68;1.00;;;26.70;49.20;;;;;;4911287;28;87398;-71
2022/07/07 12:10:30;;;;;;;4.20;0.73;;;26.60;48.90;;;;;;4918285;28;87068;-71
2022/07/07 12:13:02;;;;;;;4.20;0.73;;;26.30;49.90;;;;;;4912564;28;87064;-71
2022/07/07 12:15:29;;;;;;;4.40;1.00;;;26.60;50.50;;;;;;4918502;28;87071;-72
2022/07/07 12:17:57;;;;;;;2.20;0.93;;;27.00;48.40;;;;;;4919294;28;87126;-71
2022/07/07 12:20:23;;;;;;;3.45;1.27;;;26.40;48.30;;;;;;4919298;28;87004;-71
2022/07/07 12:22:56;;;;;;;3.17;0.70;;;26.30;48.30;;;;;;4918449;28;87356;-72
2022/07/07 12:25:24;;;;;;;3.75;0.80;;;26.10;53.50;;;;;;4919305;28;86809;-71
2022/07/07 12:28:01;;;;;;;1.38;0.57;;;26.20;50.20;;;;;;4919254;28;87585;-71
2022/07/07 12:30:31;;;;;;;5.10;0.70;;;26.20;48.70;;;;;;4909264;28;86656;-71
2022/07/07 12:32:58;;;;;;;4.15;0.75;;;25.80;48.00;;;;;;4918115;28;88634;-71
2022/07/07 12:35:33;;;;;;;2.13;0.60;;;25.20;50.50;;;;;;4919268;28;88050;-71
2022/07/07 12:38:00;;;;;;;1.35;0.43;;;25.10;51.20;;;;;;4918963;28;86773;-71
2022/07/07 12:40:27;;;;;;;4.38;0.63;;;25.50;51.70;;;;;;4919429;28;87114;-71
2022/07/07 12:42:53;;;;;;;4.22;0.70;;;25.90;48.70;;;;;;4919041;28;87639;-71
2022/07/07 12:45:20;;;;;;;2.25;0.82;;;25.90;50.10;;;;;;4919353;28;87113;-71
2022/07/07 12:47:54;;;;;;;2.17;0.73;;;25.50;51.60;;;;;;4909835;28;87131;-71
2022/07/07 12:50:21;;;;;;;2.10;0.70;;;25.60;53.20;;;;;;4919443;28;86741;-71
2022/07/07 12:53:00;;;;;;;4.55;0.70;;;25.40;50.10;;;;;;4919158;28;87212;-71
2022/07/07 12:55:39;;;;;;;2.25;0.50;;;25.30;50.60;;;;;;4918986;28;87449;-71
2022/07/07 12:58:14;;;;;;;4.03;0.57;;;25.30;49.40;;;;;;4909581;28;88186;-71
2022/07/07 13:01:02;;;;;;;3.10;0.40;;;25.20;49.70;;;;;;4919579;28;86915;-71
2022/07/07 13:03:28;;;;;;;2.80;0.75;;;24.90;50.80;;;;;;4919267;28;88071;-71
2022/07/07 13:05:55;;;;;;;1.98;0.50;;;25.00;50.10;;;;;;4918353;28;87455;-71
2022/07/07 13:08:21;;;;;;;2.03;0.43;;;24.80;51.60;;;;;;4919580;28;86932;-71
2022/07/07 13:10:47;;;;;;;4.28;0.57;;;24.70;54.50;;;;;;4916168;28;87029;-71
2022/07/07 13:13:13;;;;;;;3.00;0.50;;;24.50;51.90;;;;;;4914564;28;87392;-71
2022/07/07 13:15:38;;;;;;;4.03;0.85;;;24.70;51.80;;;;;;4914194;28;87848;-71
2022/07/07 13:18:04;;;;;;;1.60;0.50;;;25.00;51.70;;;;;;4902243;28;86880;-72
2022/07/07 13:20:30;;;;;;;3.67;0.70;;;25.30;50.70;;;;;;4917198;28;87021;-72
2022/07/07 13:22:56;;;;;;;1.70;0.38;;;25.60;50.60;;;;;;4917850;28;88282;-71
2022/07/07 13:25:22;;;;;;;2.13;0.60;;;25.90;49.60;;;;;;4919032;28;87967;-71
2022/07/07 13:27:48;;;;;;;5.03;0.85;;;26.20;50.30;;;;;;4918909;28;86988;-71
2022/07/07 13:30:13;;;;;;;2.28;1.13;;;26.30;50.50;;;;;;4918985;28;87025;-71
2022/07/07 13:32:43;;;;;;;4.15;0.60;;;26.30;49.70;;;;;;4917244;28;87105;-71
2022/07/07 13:35:09;;;;;;;3.05;0.60;;;26.10;50.40;;;;;;4917966;28;87025;-71
2022/07/07 13:37:35;;;;;;;2.25;0.43;;;26.00;49.80;;;;;;4918196;28;87037;-71
2022/07/07 13:40:00;;;;;;;2.53;0.70;;;25.60;52.20;;;;;;4919094;28;86208;-71
2022/07/07 13:42:26;;;;;;;1.73;0.45;;;25.40;52.50;;;;;;4918379;28;87274;-71
2022/07/07 13:44:52;;;;;;;4.85;0.70;;;25.30;53.40;;;;;;4917244;28;87133;-71
2022/07/07 13:47:17;;;;;;;3.08;0.52;;;25.20;53.80;;;;;;4913515;28;88081;-71
2022/07/07 13:49:43;;;;;;;3.97;0.68;;;25.40;50.80;;;;;;4918320;28;86967;-72
2022/07/07 13:52:10;;;;;;;2.58;0.82;;;25.50;52.80;;;;;;4918088;28;87128;-71
2022/07/07 13:54:37;;;;;;;3.38;0.50;;;25.30;52.20;;;;;;4918309;28;87086;-71
2022/07/07 13:57:04;;;;;;;2.13;0.52;;;25.30;52.00;;;;;;4918350;28;87357;-71
2022/07/07 13:59:30;;;;;;;2.33;0.60;;;25.20;53.10;;;;;;4919291;28;87065;-71
2022/07/07 14:01:56;;;;;;;4.13;0.70;;;25.20;51.50;;;;;;4918630;28;86721;-71
2022/07/07 14:04:22;;;;;;;3.47;0.68;;;25.20;52.30;;;;;;4918555;28;86003;-71
2022/07/07 14:06:47;;;;;;;5.45;0.60;;;25.20;52.00;;;;;;4915652;28;87318;-71
2022/07/07 14:09:14;;;;;;;3.92;0.43;;;25.20;51.10;;;;;;4918530;28;86958;-71
2022/07/07 14:11:40;;;;;;;2.38;0.43;;;25.00;52.30;;;;;;4910010;28;89114;-71
2022/07/07 14:14:05;;;;;;;3.67;0.40;;;24.90;52.70;;;;;;4918269;28;87864;-71
2022/07/07 14:16:31;;;;;;;3.80;0.45;;;24.60;53.40;;;;;;4917496;28;86698;-71
2022/07/07 14:18:58;;;;;;;2.13;0.60;;;24.50;52.90;;;;;;4918449;28;87017;-71
2022/07/07 14:21:24;;;;;;;3.28;0.43;;;24.50;53.40;;;;;;4917772;28;87249;-71
2022/07/07 14:23:50;;;;;;;3.80;0.40;;;24.40;52.90;;;;;;4918281;28;86947;-71
2022/07/07 14:26:16;;;;;;;7.45;0.70;;;24.30;52.90;;;;;;4917482;28;87046;-71
2022/07/07 14:28:42;;;;;;;3.30;0.80;;;24.20;53.10;;;;;;4917949;28;86349;-71
2022/07/07 14:31:08;;;;;;;3.08;0.38;;;24.10;53.60;;;;;;4918582;28;87619;-71
2022/07/07 14:33:33;;;;;;;2.28;0.47;;;24.10;53.60;;;;;;4917550;28;86938;-71
2022/07/07 14:35:59;;;;;;;3.30;0.43;;;24.10;53.60;;;;;;4917518;28;88018;-71
2022/07/07 14:38:25;;;;;;;2.35;0.50;;;24.00;54.30;;;;;;4913892;28;87568;-71
2022/07/07 14:40:50;;;;;;;2.30;0.38;;;23.90;54.80;;;;;;4912755;28;87497;-71
2022/07/07 14:43:16;;;;;;;2.13;0.70;;;23.60;56.10;;;;;;4917789;28;87040;-71
2022/07/07 14:45:42;;;;;;;3.72;0.40;;;23.50;56.90;;;;;;4917614;28;87552;-71
2022/07/07 14:48:08;;;;;;;2.40;0.57;;;23.50;57.80;;;;;;4908183;28;87054;-71
2022/07/07 14:50:33;;;;;;;6.15;0.50;;;23.70;55.60;;;;;;4917015;28;86925;-71
2022/07/07 14:52:59;;;;;;;3.20;0.32;;;23.80;56.70;;;;;;4917817;28;86857;-71
2022/07/07 14:55:25;;;;;;;5.47;0.50;;;24.10;55.50;;;;;;4918087;28;86909;-71
2022/07/07 14:57:51;;;;;;;2.63;0.50;;;24.20;56.30;;;;;;4917541;28;86822;-71
2022/07/07 15:00:18;;;;;;;2.75;0.50;;;24.20;57.30;;;;;;4917184;28;88186;-71
2022/07/07 15:02:44;;;;;;;3.53;0.45;;;24.30;57.20;;;;;;4916711;28;87928;-71
2022/07/07 15:05:10;;;;;;;2.65;0.40;;;24.30;57.00;;;;;;4916212;28;86838;-71
2022/07/07 15:07:41;;;;;;;2.28;0.43;;;24.40;58.20;;;;;;4904591;28;86966;-71
2022/07/07 15:10:07;;;;;;;6.60;0.63;;;24.40;57.30;;;;;;4917740;28;88835;-71
2022/07/07 15:12:33;;;;;;;2.05;0.40;;;24.30;57.50;;;;;;4907323;28;87584;-71
2022/07/07 15:14:58;;;;;;;2.10;0.40;;;24.20;56.70;;;;;;4917477;28;86654;-71
2022/07/07 15:17:24;;;;;;;4.00;0.90;;;24.00;58.40;;;;;;4905087;28;86288;-71
2022/07/07 15:19:50;;;;;;;1.17;0.30;;;23.90;58.20;;;;;;4917294;28;87116;-71
2022/07/07 15:22:16;;;;;;;2.88;0.45;;;23.90;58.80;;;;;;4915928;28;86896;-71
2022/07/07 15:24:42;;;;;;;2.97;0.40;;;24.20;58.80;;;;;;4916149;28;87874;-70
2022/07/07 15:27:08;;;;;;;4.70;0.40;;;24.50;58.10;;;;;;4916287;28;86667;-71
2022/07/07 15:29:34;;;;;;;6.30;0.38;;;24.60;58.00;;;;;;4918014;28;87446;-71
2022/07/07 15:32:00;;;;;;;1.75;0.30;;;25.00;56.50;;;;;;4920168;28;86903;-71
2022/07/07 15:34:25;;;;;;;1.45;0.30;;;25.10;55.70;;;;;;4920704;28;87026;-71
2022/07/07 15:36:52;;;;;;;1.80;0.55;;;25.10;55.20;;;;;;4920890;28;86912;-71
2022/07/07 15:39:18;;;;;;;2.75;0.50;;;25.30;54.90;;;;;;4920127;28;87831;-71